createdAt,value
2023-03-02T00:02:16.158Z,-4.00
2023-03-02T00:07:38.309Z,-4.10
2023-03-02T00:13:00.580Z,-4.10
2023-03-02T00:18:22.457Z,-4.10
2023-03-02T00:23:45.071Z,-4.20
2023-03-02T00:29:06.651Z,-4.30
2023-03-02T00:34:28.251Z,-4.30
2023-03-02T00:39:52.786Z,-4.30
2023-03-02T00:45:14.080Z,-4.40
2023-03-02T00:50:41.280Z,-4.40
2023-03-02T00:56:03.953Z,-4.50
2023-03-02T01:01:27.887Z,-4.50
2023-03-02T01:06:49.646Z,-4.50
2023-03-02T01:12:12.567Z,-4.50
2023-03-02T01:17:34.389Z,-4.50
2023-03-02T01:22:56.252Z,-4.50
2023-03-02T01:28:17.555Z,-4.60
2023-03-02T01:33:39.282Z,-4.60
2023-03-02T01:39:01.101Z,-4.70
2023-03-02T01:44:41.495Z,-4.70
2023-03-02T01:50:03.121Z,-4.70
2023-03-02T01:55:32.611Z,-4.70
2023-03-02T02:00:56.620Z,-4.60
2023-03-02T02:06:33.861Z,-4.60
2023-03-02T02:11:55.725Z,-4.70
2023-03-02T02:17:19.191Z,-4.70
2023-03-02T02:22:58.748Z,-4.70
2023-03-02T02:28:29.134Z,-4.80
2023-03-02T02:33:56.802Z,-4.80
2023-03-02T02:39:41.783Z,-4.90
2023-03-02T02:45:07.433Z,-5.00
2023-03-02T02:50:35.345Z,-5.00
2023-03-02T02:56:00.093Z,-5.00
2023-03-02T03:01:26.407Z,-5.10
2023-03-02T03:06:53.867Z,-5.10
2023-03-02T03:12:20.616Z,-5.10
2023-03-02T03:17:47.435Z,-5.20
2023-03-02T03:23:08.820Z,-5.20
2023-03-02T03:28:33.704Z,-5.30
2023-03-02T03:34:00.873Z,-5.30
2023-03-02T03:39:26.378Z,-5.30
2023-03-02T03:44:48.195Z,-5.30
2023-03-02T03:50:10.635Z,-5.40
2023-03-02T03:55:32.813Z,-5.40
2023-03-02T04:00:54.475Z,-5.50
2023-03-02T04:06:19.101Z,-5.50
2023-03-02T04:11:43.362Z,-5.50
2023-03-02T04:17:07.289Z,-5.60
2023-03-02T04:22:32.406Z,-5.60
2023-03-02T04:27:54.580Z,-5.70
2023-03-02T04:33:18.890Z,-5.70
2023-03-02T04:38:40.376Z,-5.70
2023-03-02T04:44:02.339Z,-5.70
2023-03-02T04:49:24.451Z,-5.70
2023-03-02T04:54:46.037Z,-5.70
2023-03-02T05:00:10.042Z,-5.70
2023-03-02T05:05:32.283Z,-5.60
2023-03-02T05:10:54.163Z,-5.70
2023-03-02T05:16:16.204Z,-5.70
2023-03-02T05:21:38.550Z,-5.60
2023-03-02T05:27:00.218Z,-5.70
2023-03-02T05:32:21.774Z,-5.70
2023-03-02T05:37:44.907Z,-5.70
2023-03-02T05:43:07.143Z,-5.70
2023-03-02T05:48:29.913Z,-5.80
2023-03-02T05:53:51.898Z,-5.80
2023-03-02T05:59:13.543Z,-5.90
2023-03-02T06:04:35.272Z,-5.90
2023-03-02T06:09:57.474Z,-5.70
2023-03-02T06:15:19.672Z,-5.80
2023-03-02T06:20:42.138Z,-5.80
2023-03-02T06:26:12.910Z,-5.80
2023-03-02T06:31:35.495Z,-5.80
2023-03-02T06:36:57.385Z,-5.80
2023-03-02T06:42:18.837Z,-5.80
2023-03-02T06:47:40.796Z,-5.80
2023-03-02T06:53:02.366Z,-5.70
2023-03-02T06:58:23.922Z,-5.50
2023-03-02T07:03:45.975Z,-5.30
2023-03-02T07:09:07.519Z,-5.10
2023-03-02T07:14:29.056Z,-4.80
2023-03-02T07:19:50.724Z,-4.60
2023-03-02T07:25:13.238Z,-4.30
2023-03-02T07:30:34.906Z,-4.00
2023-03-02T07:35:56.507Z,-3.70
2023-03-02T07:41:18.304Z,-3.30
2023-03-02T07:46:40.061Z,-3.00
2023-03-02T07:52:02.388Z,-2.70
2023-03-02T07:57:24.116Z,-2.30
2023-03-02T08:02:45.806Z,-2.10
2023-03-02T08:08:07.549Z,-1.90
2023-03-02T08:13:29.097Z,-1.60
2023-03-02T08:18:51.058Z,-1.20
2023-03-02T08:24:13.170Z,-0.90
2023-03-02T08:29:34.881Z,-0.30
2023-03-02T08:34:56.405Z,0.00
2023-03-02T08:40:18.015Z,0.40
2023-03-02T08:45:39.810Z,0.70
2023-03-02T08:51:07.947Z,1.00
2023-03-02T08:56:33.240Z,1.40
2023-03-02T09:01:55.462Z,1.70
2023-03-02T09:07:17.583Z,2.00
2023-03-02T09:12:39.260Z,2.20
2023-03-02T09:18:01.061Z,2.50
2023-03-02T09:23:23.450Z,2.90
2023-03-02T09:28:45.079Z,3.10
2023-03-02T09:34:06.943Z,3.30
2023-03-02T09:39:28.680Z,3.60
2023-03-02T09:45:10.303Z,3.80
2023-03-02T09:50:36.151Z,3.90
2023-03-02T09:56:00.531Z,4.20
2023-03-02T10:01:40.702Z,4.50
2023-03-02T10:07:35.402Z,4.60
2023-03-02T10:13:13.457Z,4.80
2023-03-02T10:18:50.100Z,4.90
2023-03-02T10:24:39.759Z,4.90
2023-03-02T10:30:03.224Z,5.20
2023-03-02T10:35:27.455Z,5.30
2023-03-02T10:40:57.080Z,5.50
2023-03-02T10:46:18.787Z,5.50
2023-03-02T10:51:40.499Z,5.90
2023-03-02T10:57:04.796Z,6.00
2023-03-02T11:02:28.488Z,6.10
2023-03-02T11:07:57.767Z,6.20
2023-03-02T11:13:28.277Z,6.10
2023-03-02T11:19:26.294Z,6.30
2023-03-02T11:24:53.972Z,6.20
2023-03-02T11:30:24.915Z,6.40
2023-03-02T11:35:58.495Z,6.40
2023-03-02T11:41:36.748Z,6.70
2023-03-02T11:47:02.053Z,6.90
2023-03-02T11:52:27.519Z,6.80
2023-03-02T11:57:53.632Z,7.10
2023-03-02T12:03:18.245Z,7.00
2023-03-02T12:08:46.523Z,7.20
2023-03-02T12:14:27.097Z,7.40
2023-03-02T12:19:50.435Z,7.20
2023-03-02T12:25:41.873Z,7.30
2023-03-02T12:31:07.024Z,7.30
2023-03-02T12:36:35.842Z,7.50
2023-03-02T12:42:31.326Z,7.50
2023-03-02T12:48:18.428Z,7.60
2023-03-02T12:53:41.337Z,7.60
2023-03-02T12:59:02.556Z,7.90
2023-03-02T13:04:26.804Z,7.90
2023-03-02T13:09:56.884Z,7.90
2023-03-02T13:15:18.916Z,7.90
2023-03-02T13:20:43.325Z,7.80
2023-03-02T13:26:06.641Z,8.10
2023-03-02T13:31:28.941Z,7.90
2023-03-02T13:36:51.518Z,8.00
2023-03-02T13:42:35.691Z,8.10
2023-03-02T13:47:59.300Z,8.30
2023-03-02T13:53:21.432Z,8.30
2023-03-02T13:58:42.950Z,8.40
2023-03-02T14:04:04.929Z,8.50
2023-03-02T14:09:27.492Z,8.50
2023-03-02T14:14:49.249Z,8.60
2023-03-02T14:20:14.393Z,8.50
2023-03-02T14:25:36.315Z,8.50
2023-03-02T14:30:59.496Z,8.40
2023-03-02T14:36:30.042Z,8.50
2023-03-02T14:41:54.383Z,8.30
2023-03-02T14:47:19.586Z,8.30
2023-03-02T14:52:56.853Z,8.20
2023-03-02T14:58:25.913Z,8.40
2023-03-02T15:03:47.932Z,8.30
2023-03-02T15:09:11.099Z,8.30
2023-03-02T15:14:32.622Z,8.30
2023-03-02T15:19:54.486Z,8.30
2023-03-02T15:25:16.128Z,8.10
2023-03-02T15:30:37.813Z,8.20
2023-03-02T15:36:00.249Z,7.90
2023-03-02T15:41:22.109Z,7.90
2023-03-02T15:46:43.827Z,7.60
2023-03-02T15:52:05.547Z,7.50
2023-03-02T15:57:27.262Z,7.60
2023-03-02T16:02:50.291Z,7.50
2023-03-02T16:08:12.073Z,7.10
2023-03-02T16:13:34.025Z,7.10
2023-03-02T16:18:57.525Z,6.80
2023-03-02T16:24:19.231Z,6.60
2023-03-02T16:29:41.042Z,6.30
2023-03-02T16:35:02.676Z,6.10
2023-03-02T16:40:24.775Z,5.80
2023-03-02T16:45:47.050Z,5.80
2023-03-02T16:51:09.702Z,5.60
2023-03-02T16:56:31.766Z,5.40
2023-03-02T17:01:53.556Z,5.20
2023-03-02T17:07:15.277Z,5.00
2023-03-02T17:12:36.963Z,4.70
2023-03-02T17:17:58.873Z,4.50
2023-03-02T17:23:20.430Z,4.30
2023-03-02T17:28:41.979Z,3.90
2023-03-02T17:34:03.769Z,3.60
2023-03-02T17:39:25.902Z,3.30
2023-03-02T17:44:49.482Z,3.00
2023-03-02T17:50:12.752Z,2.80
2023-03-02T17:55:34.735Z,2.50
2023-03-02T18:00:56.573Z,2.30
2023-03-02T18:06:20.713Z,2.00
2023-03-02T18:11:42.700Z,1.80
2023-03-02T18:17:07.653Z,1.60
2023-03-02T18:22:29.300Z,1.40
2023-03-02T18:27:50.917Z,1.10
2023-03-02T18:33:12.512Z,1.00
2023-03-02T18:38:35.754Z,0.80
2023-03-02T18:43:57.418Z,0.60
2023-03-02T18:49:19.188Z,0.40
2023-03-02T18:54:40.898Z,0.20
2023-03-02T19:00:06.721Z,0.10
2023-03-02T19:05:29.813Z,0.00
2023-03-02T19:10:56.549Z,-0.10
2023-03-02T19:16:18.713Z,-0.20
2023-03-02T19:21:40.530Z,-0.30
2023-03-02T19:27:02.920Z,-0.40
2023-03-02T19:32:25.011Z,-0.50
2023-03-02T19:37:47.340Z,-0.60
2023-03-02T19:43:09.148Z,-0.60
2023-03-02T19:48:30.920Z,-0.70
2023-03-02T19:53:52.290Z,-0.80
2023-03-02T19:59:13.916Z,-0.80
2023-03-02T20:04:35.849Z,-0.90
2023-03-02T20:09:57.412Z,-1.00
2023-03-02T20:15:18.921Z,-1.10
2023-03-02T20:20:41.406Z,-1.10
2023-03-02T20:26:04.954Z,-1.20
2023-03-02T20:31:28.065Z,-1.30
2023-03-02T20:36:51.417Z,-1.30
2023-03-02T20:42:13.870Z,-1.40
2023-03-02T20:47:36.163Z,-1.50
2023-03-02T20:52:58.602Z,-1.50
2023-03-02T20:58:19.982Z,-1.60
2023-03-02T21:03:41.967Z,-1.70
2023-03-02T21:09:06.125Z,-1.70
2023-03-02T21:14:28.594Z,-1.80
2023-03-02T21:19:50.120Z,-1.80
2023-03-02T21:25:12.078Z,-1.80
2023-03-02T21:30:35.046Z,-1.80
2023-03-02T21:35:56.720Z,-1.90
2023-03-02T21:41:19.073Z,-1.90
2023-03-02T21:46:41.122Z,-2.00
2023-03-02T21:52:08.030Z,-2.00
2023-03-02T21:57:29.844Z,-2.10
2023-03-02T22:02:52.209Z,-2.10
2023-03-02T22:08:18.875Z,-2.20
2023-03-02T22:13:40.677Z,-2.20
2023-03-02T22:19:08.024Z,-2.30
2023-03-02T22:24:32.102Z,-2.30
2023-03-02T22:29:56.792Z,-2.40
2023-03-02T22:35:25.567Z,-2.40
2023-03-02T22:40:47.634Z,-2.50
2023-03-02T22:46:15.906Z,-2.40
2023-03-02T22:51:37.629Z,-2.50
2023-03-02T22:56:59.333Z,-2.50
2023-03-02T23:02:25.303Z,-2.60
2023-03-02T23:07:46.676Z,-2.60
2023-03-02T23:13:11.453Z,-2.70
2023-03-02T23:18:34.017Z,-2.70
2023-03-02T23:23:56.105Z,-2.80
2023-03-02T23:29:19.001Z,-2.80
2023-03-02T23:34:40.645Z,-2.80
2023-03-02T23:40:02.133Z,-2.80
2023-03-02T23:45:24.008Z,-2.70
2023-03-02T23:50:46.024Z,-2.60
2023-03-02T23:56:07.782Z,-2.50
